createdAt,value
2016-03-06T00:00:09.948Z,998.08
2016-03-06T00:02:25.753Z,998.11
2016-03-06T00:03:25.771Z,998.1
2016-03-06T00:04:25.821Z,998.12
2016-03-06T00:05:25.808Z,998.14
2016-03-06T00:06:26.514Z,998.14
2016-03-06T00:07:26.444Z,998.13
2016-03-06T00:08:25.852Z,998.13
2016-03-06T00:09:45.074Z,998.14
2016-03-06T00:10:25.887Z,998.14
2016-03-06T00:11:51.565Z,998.15
2016-03-06T00:12:38.647Z,998.15
2016-03-06T00:13:51.618Z,998.15
2016-03-06T00:14:54.808Z,998.16
2016-03-06T00:16:04.404Z,998.14
2016-03-06T00:16:48.313Z,998.15
2016-03-06T00:17:57.831Z,998.17
2016-03-06T00:18:57.849Z,998.16
2016-03-06T00:20:04.056Z,998.17
2016-03-06T00:21:04.074Z,998.19
2016-03-06T00:22:04.076Z,998.13
2016-03-06T00:23:16.814Z,998.16
2016-03-06T00:24:04.112Z,998.15
2016-03-06T00:25:04.131Z,998.14
2016-03-06T00:26:04.134Z,998.15
2016-03-06T00:27:32.889Z,998.19
2016-03-06T00:28:48.081Z,998.19
2016-03-06T00:30:13.770Z,998.23
2016-03-06T00:31:29.556Z,998.26
2016-03-06T00:32:29.575Z,998.19
2016-03-06T00:34:58.456Z,998.22
2016-03-06T00:35:58.474Z,998.28
2016-03-06T00:37:11.289Z,998.21
2016-03-06T00:39:23.219Z,998.21
2016-03-06T00:40:23.299Z,998.19
2016-03-06T00:42:38.446Z,998.2
2016-03-06T00:43:38.463Z,998.15
2016-03-06T00:45:51.126Z,998.14
2016-03-06T00:46:51.144Z,998.17
2016-03-06T00:47:51.146Z,998.14
2016-03-06T00:50:06.417Z,998.18
2016-03-06T00:51:06.436Z,998.18
2016-03-06T00:52:06.657Z,998.2
2016-03-06T00:53:32.147Z,998.18
2016-03-06T00:54:47.415Z,998.19
2016-03-06T00:55:47.433Z,998.2
2016-03-06T00:56:47.437Z,998.19
2016-03-06T00:58:03.267Z,998.2
2016-03-06T00:58:57.004Z,998.2
2016-03-06T01:00:09.772Z,998.19
2016-03-06T01:01:09.776Z,998.23
2016-03-06T01:02:22.731Z,998.22
2016-03-06T01:02:57.078Z,998.23
2016-03-06T01:04:00.236Z,998.23
2016-03-06T01:05:09.786Z,998.24
2016-03-06T01:06:09.804Z,998.21
2016-03-06T01:07:12.917Z,998.22
2016-03-06T01:08:22.466Z,998.25
2016-03-06T01:09:22.500Z,998.22
2016-03-06T01:11:37.841Z,998.23
2016-03-06T01:12:37.860Z,998.26
2016-03-06T01:13:44.143Z,998.29
2016-03-06T01:14:48.068Z,998.25
2016-03-06T01:15:48.070Z,998.27
2016-03-06T01:17:03.245Z,998.29
2016-03-06T01:18:03.263Z,998.27
2016-03-06T01:19:16.016Z,998.25
2016-03-06T01:20:03.300Z,998.27
2016-03-06T01:21:28.977Z,998.27
2016-03-06T01:22:12.790Z,998.26
2016-03-06T01:23:38.482Z,998.25
2016-03-06T01:24:48.110Z,998.26
2016-03-06T01:26:31.990Z,998.25
2016-03-06T01:27:32.009Z,998.19
2016-03-06T01:28:47.809Z,998.21
2016-03-06T01:29:47.827Z,998.21
2016-03-06T01:30:47.845Z,998.21
2016-03-06T01:31:49.269Z,998.25
2016-03-06T01:32:47.866Z,998.21
2016-03-06T01:34:13.588Z,998.2
2016-03-06T01:35:16.637Z,998.23
2016-03-06T01:36:16.655Z,998.24
2016-03-06T01:37:16.674Z,998.23
2016-03-06T01:38:31.960Z,998.2
2016-03-06T01:39:31.885Z,998.21
2016-03-06T01:40:31.950Z,998.19
2016-03-06T01:41:41.468Z,998.18
2016-03-06T01:42:41.487Z,998.18
2016-03-06T01:43:56.677Z,998.17
2016-03-06T01:45:22.368Z,998.21
2016-03-06T01:46:06.823Z,998.18
2016-03-06T01:47:26.078Z,998.15
2016-03-06T01:48:10.765Z,998.17
2016-03-06T01:49:29.974Z,998.13
2016-03-06T01:50:52.321Z,998.16
2016-03-06T01:53:01.935Z,998.17
2016-03-06T01:55:17.128Z,998.17
2016-03-06T01:56:17.147Z,998.18
2016-03-06T01:57:17.775Z,998.14
2016-03-06T01:58:34.451Z,998.16
2016-03-06T01:59:21.717Z,998.15
2016-03-06T02:01:21.786Z,998.16
2016-03-06T02:02:31.478Z,998.15
2016-03-06T02:03:57.152Z,998.14
2016-03-06T02:04:53.780Z,998.12
2016-03-06T02:06:00.049Z,998.12
2016-03-06T02:06:53.802Z,998.16
2016-03-06T02:08:09.616Z,998.14
2016-03-06T02:08:56.900Z,998.13
2016-03-06T02:10:16.105Z,998.1
2016-03-06T02:10:59.937Z,998.11
2016-03-06T02:11:59.955Z,998.14
2016-03-06T02:12:59.958Z,998.16
2016-03-06T02:15:15.213Z,998.1
2016-03-06T02:16:15.232Z,998.1
2016-03-06T02:17:18.329Z,998.08
2016-03-06T02:18:18.331Z,998.06
2016-03-06T02:19:18.380Z,998.08
2016-03-06T02:20:18.976Z,998.09
2016-03-06T02:21:44.060Z,998.08
2016-03-06T02:22:40.687Z,998.07
2016-03-06T02:23:27.956Z,998.07
2016-03-06T02:24:53.662Z,998.05
2016-03-06T02:25:50.273Z,998.09
2016-03-06T02:26:56.762Z,998.09
2016-03-06T02:28:06.311Z,998.04
2016-03-06T02:29:06.329Z,998.04
2016-03-06T02:30:19.081Z,998.05
2016-03-06T02:31:19.100Z,998.04
2016-03-06T02:32:32.043Z,997.99
2016-03-06T02:33:06.387Z,998.01
2016-03-06T02:35:34.379Z,998.01
2016-03-06T02:36:21.629Z,998.03
2016-03-06T02:37:21.648Z,998
2016-03-06T02:38:24.747Z,998.02
2016-03-06T02:39:24.765Z,998
2016-03-06T02:40:43.971Z,997.98
2016-03-06T02:41:27.832Z,998.02
2016-03-06T02:42:27.851Z,998.01
2016-03-06T02:43:27.869Z,998.04
2016-03-06T02:44:27.872Z,998.01
2016-03-06T02:45:40.625Z,998.05
2016-03-06T02:46:27.909Z,998.02
2016-03-06T02:47:47.115Z,998.03
2016-03-06T02:48:27.930Z,998.06
2016-03-06T02:50:43.263Z,998.08
2016-03-06T02:51:43.234Z,998.05
2016-03-06T02:52:43.253Z,998.04
2016-03-06T02:53:52.818Z,998.08
2016-03-06T02:54:52.837Z,998.08
2016-03-06T02:55:52.854Z,998.09
2016-03-06T02:56:52.873Z,998.09
2016-03-06T02:57:52.891Z,998.07
2016-03-06T02:58:52.894Z,998.07
2016-03-06T02:59:59.178Z,998.06
2016-03-06T03:00:52.931Z,998.08
2016-03-06T03:01:52.949Z,998.1
2016-03-06T03:03:12.171Z,998.08
2016-03-06T03:04:05.705Z,998.1
2016-03-06T03:05:53.006Z,998.11
2016-03-06T03:06:53.009Z,998.1
2016-03-06T03:07:59.293Z,998.13
2016-03-06T03:08:53.047Z,998.13
2016-03-06T03:10:05.783Z,998.14
2016-03-06T03:10:53.067Z,998.18
2016-03-06T03:11:53.085Z,998.14
2016-03-06T03:12:53.104Z,998.16
2016-03-06T03:13:53.106Z,998.12
2016-03-06T03:14:53.125Z,998.17
2016-03-06T03:17:05.708Z,998.21
2016-03-06T03:18:02.695Z,998.23
2016-03-06T03:19:21.902Z,998.2
2016-03-06T03:20:05.779Z,998.29
2016-03-06T03:21:05.797Z,998.33
2016-03-06T03:22:05.815Z,998.29
2016-03-06T03:23:06.037Z,998.31
2016-03-06T03:24:05.851Z,998.3
2016-03-06T03:25:31.545Z,998.3
2016-03-06T03:26:15.404Z,998.26
2016-03-06T03:27:15.423Z,998.22
2016-03-06T03:28:16.050Z,998.25
2016-03-06T03:29:15.443Z,998.21
2016-03-06T03:30:25.106Z,998.18
2016-03-06T03:31:25.123Z,998.2
2016-03-06T03:32:25.142Z,998.2
2016-03-06T03:33:26.566Z,998.16
2016-03-06T03:34:44.382Z,998.18
2016-03-06T03:35:50.853Z,998.16
2016-03-06T03:36:25.200Z,998.1
2016-03-06T03:39:00.437Z,998.11
2016-03-06T03:40:00.192Z,998.13
2016-03-06T03:41:19.398Z,998.1
2016-03-06T03:42:01.603Z,998.13
2016-03-06T03:44:44.063Z,998.09
2016-03-06T03:45:18.406Z,998.1
2016-03-06T03:46:18.403Z,998.07
2016-03-06T03:47:19.025Z,998.08
2016-03-06T03:48:18.429Z,998.07
2016-03-06T03:49:18.427Z,998.05
2016-03-06T03:50:31.193Z,998.08
2016-03-06T03:51:18.459Z,998.07
2016-03-06T03:52:44.147Z,998.11
2016-03-06T03:53:28.023Z,998.14
2016-03-06T03:54:28.026Z,998.11
2016-03-06T03:55:47.247Z,998.14
2016-03-06T03:56:28.063Z,998.1
2016-03-06T03:57:28.081Z,998.12
2016-03-06T03:58:41.240Z,998.09
2016-03-06T03:59:38.226Z,998.11
2016-03-06T04:00:38.244Z,998.1
2016-03-06T04:01:39.668Z,998.13
2016-03-06T04:03:03.952Z,998.08
2016-03-06T04:03:57.141Z,998.11
2016-03-06T04:04:57.143Z,998.11
2016-03-06T04:05:58.569Z,998.08
2016-03-06T04:06:57.180Z,998.13
2016-03-06T04:07:57.182Z,998.1
2016-03-06T04:09:09.952Z,998.13
2016-03-06T04:09:57.204Z,998.18
2016-03-06T04:10:57.254Z,998.16
2016-03-06T04:11:57.273Z,998.19
2016-03-06T04:12:57.259Z,998.22
2016-03-06T04:14:03.543Z,998.21
2016-03-06T04:14:57.280Z,998.2
2016-03-06T04:16:10.048Z,998.23
2016-03-06T04:18:18.773Z,998.25
2016-03-06T04:19:38.200Z,998.24
2016-03-06T04:20:34.812Z,998.24
2016-03-06T04:21:34.814Z,998.23
2016-03-06T04:22:35.036Z,998.23
2016-03-06T04:23:34.851Z,998.28
2016-03-06T04:24:34.869Z,998.29
2016-03-06T04:25:41.138Z,998.26
2016-03-06T04:26:34.891Z,998.31
2016-03-06T04:27:47.644Z,998.36
2016-03-06T04:28:35.114Z,998.37
2016-03-06T04:29:34.930Z,998.37
2016-03-06T04:30:34.948Z,998.36
2016-03-06T04:33:15.625Z,998.37
2016-03-06T04:34:02.893Z,998.37
2016-03-06T04:35:22.116Z,998.38
2016-03-06T04:36:02.930Z,998.37
2016-03-06T04:37:02.949Z,998.39
2016-03-06T04:38:22.154Z,998.38
2016-03-06T04:39:06.048Z,998.37
2016-03-06T04:40:21.223Z,998.35
2016-03-06T04:41:21.240Z,998.34
2016-03-06T04:42:33.981Z,998.37
2016-03-06T04:43:33.999Z,998.34
2016-03-06T04:44:21.280Z,998.39
2016-03-06T04:45:21.282Z,998.37
2016-03-06T04:46:21.301Z,998.44
2016-03-06T04:47:27.585Z,998.41
2016-03-06T04:48:40.543Z,998.42
2016-03-06T04:49:21.340Z,998.41
2016-03-06T04:50:21.359Z,998.44
2016-03-06T04:51:21.377Z,998.46
2016-03-06T04:52:22.801Z,998.46
2016-03-06T04:53:26.773Z,998.47
2016-03-06T04:54:26.776Z,998.44
2016-03-06T04:55:26.795Z,998.42
2016-03-06T04:56:27.427Z,998.42
2016-03-06T04:57:39.557Z,998.37
2016-03-06T04:58:26.838Z,998.39
2016-03-06T04:59:26.857Z,998.35
2016-03-06T05:00:27.063Z,998.37
2016-03-06T05:01:26.893Z,998.38
2016-03-06T05:02:33.179Z,998.36
2016-03-06T05:03:26.913Z,998.36
2016-03-06T05:04:39.669Z,998.37
2016-03-06T05:05:26.935Z,998.36
2016-03-06T05:06:26.954Z,998.39
2016-03-06T05:07:26.971Z,998.35
2016-03-06T05:09:42.167Z,998.33
2016-03-06T05:10:42.170Z,998.32
2016-03-06T05:11:42.188Z,998.34
2016-03-06T05:12:42.206Z,998.32
2016-03-06T05:13:42.225Z,998.33
2016-03-06T05:14:54.962Z,998.34
2016-03-06T05:15:42.246Z,998.32
2016-03-06T05:17:01.467Z,998.29
2016-03-06T05:17:45.470Z,998.29
2016-03-06T05:18:54.379Z,998.29
2016-03-06T05:20:03.709Z,998.27
2016-03-06T05:21:13.259Z,998.27
2016-03-06T05:22:38.936Z,998.25
2016-03-06T05:23:23.046Z,998.27
2016-03-06T05:24:32.708Z,998.28
2016-03-06T05:25:55.601Z,998.26
2016-03-06T05:28:05.153Z,998.26
2016-03-06T05:29:05.155Z,998.25
2016-03-06T05:30:05.175Z,998.27
2016-03-06T05:31:05.177Z,998.28
2016-03-06T05:32:24.398Z,998.26
2016-03-06T05:33:05.213Z,998.23
2016-03-06T05:34:30.907Z,998.26
2016-03-06T05:35:05.344Z,998.27
2016-03-06T05:37:05.271Z,998.26
2016-03-06T05:38:05.290Z,998.23
2016-03-06T05:39:11.183Z,998.23
2016-03-06T05:40:09.795Z,998.25
2016-03-06T05:41:09.797Z,998.23
2016-03-06T05:43:52.087Z,998.24
2016-03-06T05:44:26.415Z,998.24
2016-03-06T05:46:42.220Z,998.24
2016-03-06T05:47:42.239Z,998.24
2016-03-06T05:49:58.869Z,998.27
2016-03-06T05:50:58.872Z,998.28
2016-03-06T05:53:34.676Z,998.26
2016-03-06T05:54:15.489Z,998.26
2016-03-06T05:55:41.166Z,998.29
2016-03-06T05:56:25.072Z,998.25
2016-03-06T05:57:44.296Z,998.28
2016-03-06T05:58:25.124Z,998.25
2016-03-06T05:59:40.302Z,998.29
2016-03-06T06:00:40.319Z,998.33
2016-03-06T06:02:55.529Z,998.36
2016-03-06T06:03:55.593Z,998.37
2016-03-06T06:05:21.238Z,998.36
2016-03-06T06:06:25.771Z,998.35
2016-03-06T06:07:35.324Z,998.34
2016-03-06T06:08:44.873Z,998.35
2016-03-06T06:09:28.748Z,998.37
2016-03-06T06:10:31.832Z,998.32
2016-03-06T06:11:41.396Z,998.3
2016-03-06T06:12:50.946Z,998.35
2016-03-06T06:14:00.605Z,998.29
2016-03-06T06:15:10.170Z,998.36
2016-03-06T06:16:19.703Z,998.31
2016-03-06T06:17:29.442Z,998.35
2016-03-06T06:18:29.459Z,998.38
2016-03-06T06:19:29.480Z,998.37
2016-03-06T06:20:29.483Z,998.35
2016-03-06T06:21:42.236Z,998.35
2016-03-06T06:22:35.786Z,998.36
2016-03-06T06:23:48.725Z,998.37
2016-03-06T06:24:51.806Z,998.36
2016-03-06T06:25:32.606Z,998.35
2016-03-06T06:27:42.175Z,998.36
2016-03-06T06:29:57.319Z,998.38
2016-03-06T06:30:57.369Z,998.35
2016-03-06T06:33:12.500Z,998.41
2016-03-06T06:34:12.518Z,998.43
2016-03-06T06:36:53.996Z,998.48
2016-03-06T06:37:28.339Z,998.48
2016-03-06T06:39:43.535Z,998.53
2016-03-06T06:40:43.631Z,998.49
2016-03-06T06:42:58.823Z,998.52
2016-03-06T06:43:58.857Z,998.53
2016-03-06T06:46:14.160Z,998.55
2016-03-06T06:47:14.162Z,998.55
2016-03-06T06:49:55.093Z,998.58
2016-03-06T06:50:29.437Z,998.56
2016-03-06T06:53:10.334Z,998.55
2016-03-06T06:53:44.681Z,998.57
2016-03-06T06:55:10.371Z,998.56
2016-03-06T06:55:46.125Z,998.51
2016-03-06T06:57:10.408Z,998.58
2016-03-06T06:57:54.598Z,998.54
2016-03-06T06:59:13.804Z,998.52
2016-03-06T07:00:54.622Z,998.58
2016-03-06T07:01:54.656Z,998.58
2016-03-06T07:02:59.924Z,998.57
2016-03-06T07:05:10.117Z,998.58
2016-03-06T07:06:10.141Z,998.57
2016-03-06T07:07:10.143Z,998.56
2016-03-06T07:08:10.162Z,998.54
2016-03-06T07:09:10.164Z,998.54
2016-03-06T07:10:10.182Z,998.57
2016-03-06T07:11:10.217Z,998.57
2016-03-06T07:12:10.204Z,998.57
2016-03-06T07:13:10.222Z,998.57
2016-03-06T07:14:10.256Z,998.6
2016-03-06T07:15:10.259Z,998.59
2016-03-06T07:16:10.276Z,998.62
2016-03-06T07:17:10.279Z,998.59
2016-03-06T07:18:10.298Z,998.58
2016-03-06T07:19:10.316Z,998.49
2016-03-06T07:20:10.334Z,998.54
2016-03-06T07:21:10.336Z,998.53
2016-03-06T07:22:10.355Z,998.52
2016-03-06T07:23:10.374Z,998.47
2016-03-06T07:24:10.392Z,998.47
2016-03-06T07:25:10.394Z,998.45
2016-03-06T07:26:10.428Z,998.47
2016-03-06T07:27:10.431Z,998.46
2016-03-06T07:28:10.653Z,998.51
2016-03-06T07:29:10.686Z,998.49
2016-03-06T07:30:10.471Z,998.49
2016-03-06T07:31:10.489Z,998.51
2016-03-06T07:32:10.508Z,998.55
2016-03-06T07:33:10.526Z,998.54
2016-03-06T07:34:10.544Z,998.57
2016-03-06T07:35:10.562Z,998.57
2016-03-06T07:36:10.565Z,998.59
2016-03-06T07:37:10.583Z,998.6
2016-03-06T07:38:10.601Z,998.57
2016-03-06T07:39:10.620Z,998.63
2016-03-06T07:40:10.623Z,998.65
2016-03-06T07:41:10.640Z,998.68
2016-03-06T07:42:10.659Z,998.61
2016-03-06T07:43:10.678Z,998.61
2016-03-06T07:44:10.696Z,998.6
2016-03-06T07:45:10.714Z,998.65
2016-03-06T07:46:10.732Z,998.62
2016-03-06T07:47:10.751Z,998.59
2016-03-06T07:48:10.753Z,998.61
2016-03-06T07:49:23.506Z,998.61
2016-03-06T07:50:10.790Z,998.64
2016-03-06T07:51:10.808Z,998.67
2016-03-06T07:52:10.827Z,998.69
2016-03-06T07:53:10.844Z,998.69
2016-03-06T07:54:10.847Z,998.71
2016-03-06T07:55:10.881Z,998.73
2016-03-06T07:56:10.883Z,998.79
2016-03-06T07:57:10.902Z,998.79
2016-03-06T07:58:10.905Z,998.78
2016-03-06T07:59:10.939Z,998.82
2016-03-06T08:00:10.958Z,998.8
2016-03-06T08:01:10.960Z,998.82
2016-03-06T08:02:10.979Z,998.83
2016-03-06T08:03:11.013Z,998.79
2016-03-06T08:04:11.015Z,998.81
2016-03-06T08:05:11.033Z,998.8
2016-03-06T08:06:11.059Z,998.83
2016-03-06T08:07:11.063Z,998.8
2016-03-06T08:08:11.080Z,998.83
2016-03-06T08:09:11.099Z,998.82
2016-03-06T08:10:11.132Z,998.84
2016-03-06T08:11:11.135Z,998.87
2016-03-06T08:12:11.153Z,998.86
2016-03-06T08:13:11.172Z,998.88
2016-03-06T08:14:11.237Z,998.87
2016-03-06T08:15:11.803Z,998.86
2016-03-06T08:16:11.320Z,998.89
2016-03-06T08:17:11.245Z,998.89
2016-03-06T08:18:11.403Z,998.87
2016-03-06T08:19:11.376Z,998.83
2016-03-06T08:20:24.066Z,998.87
2016-03-06T08:21:11.397Z,998.84
2016-03-06T08:22:11.414Z,998.87
2016-03-06T08:23:11.387Z,998.87
2016-03-06T08:24:11.592Z,998.9
2016-03-06T08:25:11.391Z,998.88
2016-03-06T08:26:11.583Z,998.88
2016-03-06T08:27:11.397Z,998.88
2016-03-06T08:28:24.306Z,998.93
2016-03-06T08:29:11.433Z,998.92
2016-03-06T08:30:11.546Z,998.91
2016-03-06T08:31:11.673Z,998.92
2016-03-06T08:32:11.535Z,998.93
2016-03-06T08:33:11.507Z,998.95
2016-03-06T08:34:11.524Z,998.94
2016-03-06T08:35:11.543Z,998.98
2016-03-06T08:36:11.562Z,998.99
2016-03-06T08:37:24.315Z,999.03
2016-03-06T08:38:11.598Z,999.02
2016-03-06T08:39:11.680Z,999.07
2016-03-06T08:40:11.620Z,999.06
2016-03-06T08:41:11.653Z,999.08
2016-03-06T08:42:11.657Z,999.06
2016-03-06T08:43:11.690Z,999.03
2016-03-06T08:44:11.693Z,999
2016-03-06T08:45:11.712Z,999.02
2016-03-06T08:46:11.729Z,998.96
2016-03-06T08:47:11.748Z,998.96
2016-03-06T08:48:12.047Z,998.93
2016-03-06T08:49:12.706Z,998.92
2016-03-06T08:50:11.818Z,998.92
2016-03-06T08:51:11.820Z,998.95
2016-03-06T08:52:11.934Z,998.94
2016-03-06T08:53:11.873Z,998.91
2016-03-06T08:54:11.876Z,998.92
2016-03-06T08:55:11.894Z,998.89
2016-03-06T08:56:11.913Z,998.92
2016-03-06T08:57:11.931Z,998.91
2016-03-06T08:58:24.683Z,998.89
2016-03-06T08:59:11.967Z,998.93
2016-03-06T09:00:11.970Z,998.94
2016-03-06T09:01:11.989Z,998.95
2016-03-06T09:02:12.022Z,998.94
2016-03-06T09:03:12.025Z,998.92
2016-03-06T09:04:12.044Z,998.92
2016-03-06T09:05:13.483Z,998.94
2016-03-06T09:06:12.079Z,998.94
2016-03-06T09:07:37.820Z,998.96
2016-03-06T09:08:21.710Z,998.98
2016-03-06T09:09:21.729Z,998.9
2016-03-06T09:10:21.747Z,998.92
2016-03-06T09:11:21.765Z,998.97
2016-03-06T09:12:21.784Z,998.94
2016-03-06T09:13:21.802Z,998.99
2016-03-06T09:14:21.804Z,998.99
2016-03-06T09:15:21.823Z,999
2016-03-06T09:16:21.857Z,998.98
2016-03-06T09:17:21.875Z,998.99
2016-03-06T09:18:21.894Z,998.98
2016-03-06T09:19:22.350Z,998.97
2016-03-06T09:20:21.930Z,999.01
2016-03-06T09:21:21.934Z,999.01
2016-03-06T09:22:21.967Z,999.02
2016-03-06T09:23:21.985Z,999
2016-03-06T09:24:22.003Z,998.99
2016-03-06T09:25:22.022Z,998.98
2016-03-06T09:26:34.777Z,998.95
2016-03-06T09:27:22.058Z,998.94
2016-03-06T09:28:22.077Z,998.95
2016-03-06T09:29:22.094Z,998.99
2016-03-06T09:30:22.113Z,998.99
2016-03-06T09:31:22.132Z,998.98
2016-03-06T09:32:22.150Z,998.99
2016-03-06T09:33:22.169Z,999.01
2016-03-06T09:34:22.186Z,999.02
2016-03-06T09:35:22.205Z,999.07
2016-03-06T09:36:22.239Z,999.02
2016-03-06T09:37:22.929Z,999.06
2016-03-06T09:38:35.013Z,999.06
2016-03-06T09:39:22.279Z,999.03
2016-03-06T09:40:41.518Z,999.09
2016-03-06T09:41:25.409Z,999.07
2016-03-06T09:42:25.412Z,999.03
2016-03-06T09:43:25.430Z,999.03
2016-03-06T09:45:40.766Z,999.05
2016-03-06T09:46:40.768Z,999.01
2016-03-06T09:47:40.786Z,999.01
2016-03-06T09:48:40.821Z,999.02
2016-03-06T09:49:40.839Z,999.04
2016-03-06T09:50:40.857Z,999.01
2016-03-06T09:51:40.876Z,998.98
2016-03-06T09:52:40.894Z,998.98
2016-03-06T09:53:40.912Z,999.04
2016-03-06T09:54:53.665Z,998.98
2016-03-06T09:55:40.949Z,998.96
2016-03-06T09:57:00.170Z,999.04
2016-03-06T09:57:40.986Z,999.02
2016-03-06T09:59:06.676Z,999.02
2016-03-06T09:59:41.022Z,999.02
2016-03-06T10:01:56.231Z,999.05
2016-03-06T10:02:56.249Z,999.09
2016-03-06T10:03:56.266Z,999.15
2016-03-06T10:04:56.286Z,999.13
2016-03-06T10:05:56.304Z,999.15
2016-03-06T10:06:56.322Z,999.11
2016-03-06T10:07:56.341Z,999.12
2016-03-06T10:09:09.093Z,999.13
2016-03-06T10:09:56.377Z,999.11
2016-03-06T10:10:56.427Z,999.09
2016-03-06T10:11:57.023Z,999.13
2016-03-06T10:12:56.432Z,999.11
2016-03-06T10:13:56.451Z,999.17
2016-03-06T10:14:56.484Z,999.08
2016-03-06T10:15:56.504Z,999.16
2016-03-06T10:16:56.521Z,999.19
2016-03-06T10:17:56.523Z,999.19
2016-03-06T10:18:56.557Z,999.21
2016-03-06T10:19:56.560Z,999.19
2016-03-06T10:20:56.578Z,999.22
2016-03-06T10:21:56.597Z,999.24
2016-03-06T10:22:56.615Z,999.18
2016-03-06T10:23:56.650Z,999.16
2016-03-06T10:24:56.667Z,999.19
2016-03-06T10:25:56.686Z,999.23
2016-03-06T10:26:56.704Z,999.16
2016-03-06T10:27:56.722Z,999.23
2016-03-06T10:28:56.741Z,999.2
2016-03-06T10:29:56.759Z,999.21
2016-03-06T10:30:56.777Z,999.19
2016-03-06T10:31:56.812Z,999.16
2016-03-06T10:32:56.814Z,999.23
2016-03-06T10:33:56.847Z,999.24
2016-03-06T10:34:56.867Z,999.24
2016-03-06T10:35:56.900Z,999.18
2016-03-06T10:36:56.887Z,999.21
2016-03-06T10:37:56.921Z,999.2
2016-03-06T10:38:56.940Z,999.21
2016-03-06T10:39:56.958Z,999.26
2016-03-06T10:40:56.976Z,999.26
2016-03-06T10:41:56.994Z,999.26
2016-03-06T10:42:57.013Z,999.25
2016-03-06T10:43:57.031Z,999.25
2016-03-06T10:44:57.049Z,999.21
2016-03-06T10:45:57.068Z,999.22
2016-03-06T10:46:57.773Z,999.2
2016-03-06T10:47:57.121Z,999.2
2016-03-06T10:48:57.138Z,999.25
2016-03-06T10:49:57.156Z,999.27
2016-03-06T10:50:57.175Z,999.28
2016-03-06T10:51:57.192Z,999.27
2016-03-06T10:52:57.212Z,999.29
2016-03-06T10:53:57.230Z,999.34
2016-03-06T10:54:57.311Z,999.29
2016-03-06T10:55:57.267Z,999.32
2016-03-06T10:56:57.284Z,999.31
2016-03-06T10:57:57.319Z,999.28
2016-03-06T10:58:57.322Z,999.29
2016-03-06T10:59:57.339Z,999.29
2016-03-06T11:00:57.374Z,999.29
2016-03-06T11:01:57.392Z,999.24
2016-03-06T11:02:57.411Z,999.31
2016-03-06T11:03:57.428Z,999.27
2016-03-06T11:05:10.181Z,999.28
2016-03-06T11:05:57.466Z,999.33
2016-03-06T11:06:57.499Z,999.28
2016-03-06T11:07:57.501Z,999.29
2016-03-06T11:10:00.632Z,999.3
2016-03-06T11:11:00.651Z,999.26
2016-03-06T11:12:00.668Z,999.3
2016-03-06T11:13:00.687Z,999.28
2016-03-06T11:14:00.705Z,999.27
2016-03-06T11:15:00.724Z,999.28
2016-03-06T11:16:00.757Z,999.27
2016-03-06T11:17:00.760Z,999.22
2016-03-06T11:18:00.779Z,999.22
2016-03-06T11:19:00.798Z,999.22
2016-03-06T11:20:00.831Z,999.16
2016-03-06T11:21:00.849Z,999.21
2016-03-06T11:22:00.868Z,999.2
2016-03-06T11:23:00.886Z,999.21
2016-03-06T11:24:00.920Z,999.25
2016-03-06T11:25:00.922Z,999.22
2016-03-06T11:26:00.942Z,999.22
2016-03-06T11:27:01.756Z,999.18
2016-03-06T11:28:00.977Z,999.21
2016-03-06T11:29:20.200Z,999.15
2016-03-06T11:30:01.030Z,999.18
2016-03-06T11:31:01.032Z,999.19
2016-03-06T11:32:01.067Z,999.12
2016-03-06T11:33:01.085Z,999.14
2016-03-06T11:34:01.103Z,999.11
2016-03-06T11:35:13.872Z,999.11
2016-03-06T11:36:01.139Z,999.1
2016-03-06T11:37:26.846Z,999.08
2016-03-06T11:38:10.728Z,999.05
2016-03-06T11:39:10.764Z,999.09
2016-03-06T11:40:10.781Z,999.07
2016-03-06T11:41:10.799Z,999.05
2016-03-06T11:42:10.819Z,999.05
2016-03-06T11:43:10.836Z,999.06
2016-03-06T11:44:10.854Z,999.05
2016-03-06T11:45:10.889Z,999.06
2016-03-06T11:46:11.407Z,999.04
2016-03-06T11:47:10.910Z,999.02
2016-03-06T11:48:23.678Z,999.07
2016-03-06T11:49:10.962Z,999.03
2016-03-06T11:50:36.654Z,999.02
2016-03-06T11:51:20.607Z,999.01
2016-03-06T11:52:20.626Z,999.05
2016-03-06T11:53:20.644Z,999.02
2016-03-06T11:54:20.663Z,999
2016-03-06T11:55:20.681Z,998.97
2016-03-06T11:56:20.699Z,999
2016-03-06T11:57:20.718Z,998.99
2016-03-06T11:58:21.345Z,998.99
2016-03-06T11:59:20.770Z,998.99
2016-03-06T12:00:20.788Z,998.95
2016-03-06T12:01:20.806Z,998.97
2016-03-06T12:02:21.435Z,998.86
2016-03-06T12:03:20.843Z,998.88
2016-03-06T12:04:20.878Z,998.83
2016-03-06T12:05:20.895Z,998.88
2016-03-06T12:06:20.897Z,998.9
2016-03-06T12:07:21.229Z,998.9
2016-03-06T12:08:20.950Z,998.92
2016-03-06T12:09:20.984Z,998.89
2016-03-06T12:10:21.019Z,998.91
2016-03-06T12:11:33.739Z,998.88
2016-03-06T12:12:21.039Z,998.88
2016-03-06T12:13:21.058Z,998.84
2016-03-06T12:14:21.279Z,998.84
2016-03-06T12:15:21.094Z,998.79
2016-03-06T12:16:21.113Z,998.81
2016-03-06T12:17:21.130Z,998.77
2016-03-06T12:18:21.149Z,998.81
2016-03-06T12:19:21.167Z,998.79
2016-03-06T12:20:21.201Z,998.8
2016-03-06T12:21:21.219Z,998.78
2016-03-06T12:22:21.238Z,998.83
2016-03-06T12:23:21.256Z,998.83
2016-03-06T12:24:21.275Z,998.8
2016-03-06T12:25:21.293Z,998.8
2016-03-06T12:26:21.326Z,998.82
2016-03-06T12:27:21.330Z,998.79
2016-03-06T12:28:21.379Z,998.76
2016-03-06T12:29:21.381Z,998.77
2016-03-06T12:30:21.400Z,998.76
2016-03-06T12:31:21.419Z,998.75
2016-03-06T12:32:21.453Z,998.77
2016-03-06T12:33:21.470Z,998.74
2016-03-06T12:34:27.754Z,998.7
2016-03-06T12:35:21.507Z,998.69
2016-03-06T12:36:21.525Z,998.68
2016-03-06T12:37:22.966Z,998.68
2016-03-06T12:38:21.765Z,998.68
2016-03-06T12:39:21.612Z,998.68
2016-03-06T12:40:21.614Z,998.68
2016-03-06T12:41:21.680Z,998.68
2016-03-06T12:42:21.651Z,998.64
2016-03-06T12:43:21.669Z,998.65
2016-03-06T12:44:21.688Z,998.61
2016-03-06T12:45:23.111Z,998.61
2016-03-06T12:46:21.710Z,998.62
2016-03-06T12:47:21.716Z,998.62
2016-03-06T12:48:21.721Z,998.63
2016-03-06T12:49:21.727Z,998.62
2016-03-06T12:50:21.749Z,998.6
2016-03-06T12:51:21.747Z,998.61
2016-03-06T12:52:21.777Z,998.63
2016-03-06T12:53:21.775Z,998.59
2016-03-06T12:54:21.852Z,998.6
2016-03-06T12:55:21.820Z,998.58
2016-03-06T12:56:21.837Z,998.6
2016-03-06T12:57:21.853Z,998.62
2016-03-06T12:58:21.870Z,998.62
2016-03-06T12:59:21.888Z,998.63
2016-03-06T13:00:21.904Z,998.64
2016-03-06T13:01:21.938Z,998.61
2016-03-06T13:02:36.049Z,998.63
2016-03-06T13:03:22.128Z,998.61
2016-03-06T13:04:21.975Z,998.63
2016-03-06T13:05:22.007Z,998.6
2016-03-06T13:06:22.009Z,998.65
2016-03-06T13:07:22.340Z,998.59
2016-03-06T13:08:22.062Z,998.61
2016-03-06T13:09:22.064Z,998.59
2016-03-06T13:10:34.816Z,998.57
2016-03-06T13:11:22.116Z,998.55
2016-03-06T13:12:22.133Z,998.62
2016-03-06T13:13:22.152Z,998.57
2016-03-06T13:14:22.171Z,998.56
2016-03-06T13:15:28.454Z,998.56
2016-03-06T13:16:22.208Z,998.51
2016-03-06T13:17:34.960Z,998.53
2016-03-06T13:18:22.243Z,998.54
2016-03-06T13:19:41.468Z,998.5
2016-03-06T13:20:22.296Z,998.49
2016-03-06T13:22:22.317Z,998.45
2016-03-06T13:23:22.335Z,998.44
2016-03-06T13:24:35.635Z,998.45
2016-03-06T13:25:25.822Z,998.43
2016-03-06T13:26:41.602Z,998.44
2016-03-06T13:27:28.684Z,998.43
2016-03-06T13:28:48.108Z,998.47
2016-03-06T13:29:32.061Z,998.47
2016-03-06T13:30:32.064Z,998.44
2016-03-06T13:32:47.385Z,998.47
2016-03-06T13:33:47.388Z,998.49
2016-03-06T13:36:02.643Z,998.49
2016-03-06T13:37:02.660Z,998.45
2016-03-06T13:38:02.678Z,998.46
2016-03-06T13:39:18.509Z,998.43
2016-03-06T13:41:54.580Z,998.45